createdAt,value
2023-04-08T00:01:49.856Z,5.76
2023-04-08T00:04:16.773Z,5.43
2023-04-08T00:06:43.335Z,5.44
2023-04-08T00:09:09.762Z,5.47
2023-04-08T00:11:36.180Z,5.30
2023-04-08T00:14:02.885Z,4.99
2023-04-08T00:16:29.342Z,5.02
2023-04-08T00:18:55.806Z,5.13
2023-04-08T00:21:22.713Z,5.08
2023-04-08T00:23:49.444Z,5.09
2023-04-08T00:26:16.152Z,4.81
2023-04-08T00:28:43.644Z,4.81
2023-04-08T00:31:10.104Z,4.87
2023-04-08T00:33:36.667Z,4.92
2023-04-08T00:36:03.402Z,4.70
2023-04-08T00:38:30.106Z,4.64
2023-04-08T00:40:58.227Z,4.75
2023-04-08T00:43:24.642Z,4.74
2023-04-08T00:45:51.158Z,4.78
2023-04-08T00:48:17.623Z,4.77
2023-04-08T00:50:44.040Z,4.81
2023-04-08T00:53:10.502Z,4.93
2023-04-08T00:55:36.950Z,4.92
2023-04-08T00:58:03.401Z,4.87
2023-04-08T01:00:29.864Z,4.85
2023-04-08T01:02:56.522Z,4.72
2023-04-08T01:05:23.188Z,4.69
2023-04-08T01:07:50.059Z,4.80
2023-04-08T01:10:16.688Z,4.89
2023-04-08T01:12:43.167Z,5.00
2023-04-08T01:15:09.699Z,4.80
2023-04-08T01:17:36.209Z,4.84
2023-04-08T01:20:02.886Z,4.58
2023-04-08T01:22:29.447Z,4.48
2023-04-08T01:24:55.859Z,4.54
2023-04-08T01:27:22.214Z,4.65
2023-04-08T01:29:48.643Z,4.63
2023-04-08T01:32:14.996Z,4.67
2023-04-08T01:34:41.819Z,4.71
2023-04-08T01:37:08.740Z,4.89
2023-04-08T01:39:35.170Z,4.81
2023-04-08T01:42:01.892Z,4.76
2023-04-08T01:44:28.454Z,4.77
2023-04-08T01:46:54.889Z,4.84
2023-04-08T01:49:21.458Z,4.73
2023-04-08T01:51:47.863Z,4.68
2023-04-08T01:54:14.325Z,4.78
2023-04-08T01:56:41.108Z,4.67
2023-04-08T01:59:07.567Z,4.59
2023-04-08T02:01:34.150Z,4.54
2023-04-08T02:04:00.928Z,4.52
2023-04-08T02:06:27.482Z,4.64
2023-04-08T02:08:53.931Z,4.45
2023-04-08T02:11:20.745Z,4.41
2023-04-08T02:13:47.126Z,4.47
2023-04-08T02:16:13.617Z,4.50
2023-04-08T02:18:39.998Z,4.44
2023-04-08T02:21:06.518Z,4.37
2023-04-08T02:23:32.945Z,4.12
2023-04-08T02:25:59.347Z,4.11
2023-04-08T02:28:25.985Z,4.16
2023-04-08T02:30:52.555Z,4.33
2023-04-08T02:33:19.019Z,4.26
2023-04-08T02:35:45.450Z,4.10
2023-04-08T02:38:11.987Z,3.91
2023-04-08T02:40:38.444Z,3.82
2023-04-08T02:43:04.893Z,3.85
2023-04-08T02:45:31.354Z,3.91
2023-04-08T02:47:57.801Z,3.89
2023-04-08T02:50:24.259Z,3.92
2023-04-08T02:52:50.714Z,3.93
2023-04-08T02:55:17.194Z,3.84
2023-04-08T02:57:43.737Z,3.81
2023-04-08T03:00:10.283Z,3.86
2023-04-08T03:02:36.883Z,3.82
2023-04-08T03:05:03.367Z,3.83
2023-04-08T03:07:29.884Z,3.86
2023-04-08T03:09:56.326Z,3.90
2023-04-08T03:12:22.763Z,3.83
2023-04-08T03:14:49.157Z,3.82
2023-04-08T03:17:15.540Z,3.66
2023-04-08T03:19:42.001Z,3.63
2023-04-08T03:22:08.777Z,3.66
2023-04-08T03:24:35.232Z,3.68
2023-04-08T03:27:01.886Z,3.72
2023-04-08T03:29:28.312Z,3.75
2023-04-08T03:31:54.869Z,3.79
2023-04-08T03:34:21.442Z,3.82
2023-04-08T03:36:47.910Z,3.80
2023-04-08T03:39:14.331Z,3.76
2023-04-08T03:41:40.758Z,3.77
2023-04-08T03:44:07.177Z,3.70
2023-04-08T03:46:34.033Z,3.65
2023-04-08T03:49:00.478Z,3.71
2023-04-08T03:51:26.901Z,3.65
2023-04-08T03:53:53.344Z,3.60
2023-04-08T03:56:19.854Z,3.60
2023-04-08T03:58:47.497Z,3.65
2023-04-08T04:01:13.944Z,3.66
2023-04-08T04:03:40.533Z,3.64
2023-04-08T04:06:07.223Z,3.73
2023-04-08T04:08:33.636Z,3.73
2023-04-08T04:11:00.097Z,3.67
2023-04-08T04:13:26.562Z,3.75
2023-04-08T04:15:53.254Z,3.72
2023-04-08T04:18:19.786Z,3.65
2023-04-08T04:20:46.268Z,3.56
2023-04-08T04:23:12.785Z,3.60
2023-04-08T04:25:39.291Z,3.59
2023-04-08T04:28:05.779Z,3.64
2023-04-08T04:30:32.156Z,3.68
2023-04-08T04:32:58.611Z,3.64
2023-04-08T04:35:25.168Z,3.65
2023-04-08T04:37:51.865Z,3.64
2023-04-08T04:40:18.427Z,3.56
2023-04-08T04:42:44.857Z,3.54
2023-04-08T04:45:12.504Z,3.57
2023-04-08T04:47:39.190Z,3.62
2023-04-08T04:50:05.918Z,3.54
2023-04-08T04:52:32.499Z,3.51
2023-04-08T04:54:58.885Z,3.48
2023-04-08T04:57:25.564Z,3.49
2023-04-08T04:59:52.014Z,3.51
2023-04-08T05:02:18.556Z,3.55
2023-04-08T05:04:45.646Z,3.58
2023-04-08T05:07:12.307Z,3.56
2023-04-08T05:09:38.806Z,3.53
2023-04-08T05:12:05.258Z,3.49
2023-04-08T05:14:31.841Z,3.54
2023-04-08T05:16:58.278Z,3.46
2023-04-08T05:19:24.815Z,3.42
2023-04-08T05:21:51.345Z,3.47
2023-04-08T05:24:18.243Z,3.51
2023-04-08T05:26:44.727Z,3.84
2023-04-08T05:29:11.572Z,3.63
2023-04-08T05:31:39.156Z,3.50
2023-04-08T05:34:05.883Z,3.54
2023-04-08T05:36:32.341Z,3.45
2023-04-08T05:38:58.987Z,3.46
2023-04-08T05:41:25.418Z,3.48
2023-04-08T05:43:51.895Z,3.51
2023-04-08T05:46:18.497Z,3.51
2023-04-08T05:48:44.935Z,3.51
2023-04-08T05:51:11.626Z,3.52
2023-04-08T05:53:38.439Z,3.49
2023-04-08T05:56:06.368Z,3.48
2023-04-08T05:58:33.106Z,3.49
2023-04-08T06:00:59.941Z,3.48
2023-04-08T06:03:26.795Z,3.37
2023-04-08T06:05:53.457Z,2.97
2023-04-08T06:08:19.900Z,3.16
2023-04-08T06:10:46.365Z,3.31
2023-04-08T06:13:12.744Z,3.14
2023-04-08T06:15:39.264Z,3.18
2023-04-08T06:18:05.796Z,3.08
2023-04-08T06:20:32.334Z,3.03
2023-04-08T06:22:58.822Z,3.29
2023-04-08T06:25:25.318Z,3.35
2023-04-08T06:27:51.729Z,3.18
2023-04-08T06:30:19.305Z,2.83
2023-04-08T06:32:45.951Z,2.73
2023-04-08T06:35:12.381Z,2.89
2023-04-08T06:37:39.003Z,2.59
2023-04-08T06:40:05.439Z,2.68
2023-04-08T06:42:32.233Z,3.06
2023-04-08T06:44:58.676Z,2.77
2023-04-08T06:47:25.165Z,3.08
2023-04-08T06:49:52.056Z,2.28
2023-04-08T06:52:19.307Z,2.50
2023-04-08T06:54:45.965Z,2.57
2023-04-08T06:57:12.408Z,2.56
2023-04-08T06:59:38.885Z,2.45
2023-04-08T07:02:05.510Z,2.74
2023-04-08T07:04:31.909Z,2.68
2023-04-08T07:06:59.172Z,2.85
2023-04-08T07:09:25.688Z,3.02
2023-04-08T07:11:52.155Z,3.10
2023-04-08T07:14:18.691Z,2.99
2023-04-08T07:16:45.459Z,3.22
2023-04-08T07:19:11.985Z,3.30
2023-04-08T07:21:38.488Z,2.74
2023-04-08T07:24:04.974Z,2.95
2023-04-08T07:26:31.450Z,2.67
2023-04-08T07:28:57.880Z,2.60
2023-04-08T07:31:24.514Z,2.77
2023-04-08T07:33:50.983Z,2.71
2023-04-08T07:36:17.537Z,2.82
2023-04-08T07:38:44.325Z,2.23
2023-04-08T07:41:10.865Z,2.01
2023-04-08T07:43:37.584Z,1.76
2023-04-08T07:46:04.136Z,1.94
2023-04-08T07:48:30.804Z,2.00
2023-04-08T07:51:09.401Z,2.10
2023-04-08T07:53:38.307Z,2.37
2023-04-08T07:56:04.995Z,2.19
2023-04-08T07:58:32.434Z,2.18
2023-04-08T08:00:59.139Z,2.60
2023-04-08T08:03:25.830Z,2.11
2023-04-08T08:05:52.700Z,2.25
2023-04-08T08:08:19.304Z,2.64
2023-04-08T08:10:45.745Z,2.84
2023-04-08T08:13:12.271Z,3.12
2023-04-08T08:15:38.936Z,2.43
2023-04-08T08:18:05.463Z,1.70
2023-04-08T08:20:32.286Z,1.44
2023-04-08T08:22:58.837Z,1.92
2023-04-08T08:25:26.335Z,2.25
2023-04-08T08:27:53.499Z,2.24
2023-04-08T08:30:20.173Z,2.09
2023-04-08T08:32:46.713Z,2.45
2023-04-08T08:35:13.308Z,2.65
2023-04-08T08:37:39.683Z,2.98
2023-04-08T08:40:06.164Z,2.88
2023-04-08T08:42:37.603Z,2.52
2023-04-08T08:45:04.097Z,2.76
2023-04-08T08:47:30.545Z,2.30
2023-04-08T08:49:57.016Z,2.75
2023-04-08T08:52:23.419Z,2.50
2023-04-08T08:54:49.862Z,2.68
2023-04-08T08:57:16.345Z,3.01
2023-04-08T08:59:42.766Z,3.07
2023-04-08T09:02:09.514Z,3.18
2023-04-08T09:04:36.148Z,3.22
2023-04-08T09:07:02.979Z,3.22
2023-04-08T09:09:29.611Z,3.15
2023-04-08T09:11:56.100Z,3.25
2023-04-08T09:14:22.993Z,3.30
2023-04-08T09:16:49.615Z,2.73
2023-04-08T09:19:16.185Z,2.91
2023-04-08T09:21:42.770Z,3.18
2023-04-08T09:24:09.222Z,3.41
2023-04-08T09:26:35.716Z,3.15
2023-04-08T09:29:14.359Z,3.35
2023-04-08T09:31:49.147Z,3.44
2023-04-08T09:34:15.709Z,3.59
2023-04-08T09:36:42.175Z,3.65
2023-04-08T09:39:08.809Z,3.67
2023-04-08T09:41:35.490Z,3.73
2023-04-08T09:44:02.105Z,3.50
2023-04-08T09:46:28.610Z,3.62
2023-04-08T09:48:55.402Z,3.69
2023-04-08T09:51:21.989Z,3.78
2023-04-08T09:53:48.753Z,3.73
2023-04-08T09:56:15.776Z,3.70
2023-04-08T09:58:42.321Z,3.65
2023-04-08T10:01:11.132Z,3.76
2023-04-08T10:03:38.062Z,3.84
2023-04-08T10:06:04.705Z,3.85
2023-04-08T10:08:31.119Z,4.08
2023-04-08T10:10:57.593Z,3.48
2023-04-08T10:13:24.007Z,2.76
2023-04-08T10:15:51.333Z,3.09
2023-04-08T10:18:17.840Z,3.08
2023-04-08T10:20:44.432Z,3.39
2023-04-08T10:23:10.916Z,3.56
2023-04-08T10:25:38.388Z,3.54
2023-04-08T10:28:06.212Z,3.64
2023-04-08T10:30:33.622Z,3.78
2023-04-08T10:33:00.367Z,3.83
2023-04-08T10:35:26.912Z,3.79
2023-04-08T10:37:53.346Z,3.94
2023-04-08T10:40:19.885Z,3.97
2023-04-08T10:42:46.602Z,4.06
2023-04-08T10:45:13.038Z,4.17
2023-04-08T10:47:39.601Z,4.09
2023-04-08T10:50:06.126Z,4.01
2023-04-08T10:52:32.580Z,3.55
2023-04-08T10:54:59.326Z,3.59
2023-04-08T10:57:27.891Z,3.19
2023-04-08T10:59:54.297Z,3.59
2023-04-08T11:02:21.216Z,3.72
2023-04-08T11:04:47.813Z,3.65
2023-04-08T11:07:14.403Z,3.77
2023-04-08T11:09:41.108Z,3.68
2023-04-08T11:12:07.728Z,3.61
2023-04-08T11:14:35.122Z,3.56
2023-04-08T11:17:03.482Z,3.66
2023-04-08T11:19:30.583Z,3.53
2023-04-08T11:21:57.123Z,3.51
2023-04-08T11:24:24.574Z,3.61
2023-04-08T11:26:51.242Z,3.72
2023-04-08T11:29:17.733Z,3.84
2023-04-08T11:31:44.570Z,3.78
2023-04-08T11:34:13.205Z,3.80
2023-04-08T11:36:39.760Z,4.15
2023-04-08T11:39:06.560Z,3.87
2023-04-08T11:41:33.486Z,3.46
2023-04-08T11:44:00.035Z,3.61
2023-04-08T11:46:27.802Z,3.80
2023-04-08T11:48:54.274Z,3.83
2023-04-08T11:51:21.093Z,3.98
2023-04-08T11:53:50.497Z,4.00
2023-04-08T11:56:17.050Z,4.06
2023-04-08T11:58:43.721Z,4.11
2023-04-08T12:01:11.456Z,4.34
2023-04-08T12:03:38.112Z,4.33
2023-04-08T12:06:05.317Z,4.00
2023-04-08T12:08:32.180Z,3.72
2023-04-08T12:11:09.304Z,3.62
2023-04-08T12:13:45.349Z,3.76
2023-04-08T12:16:12.933Z,3.57
2023-04-08T12:18:39.379Z,3.77
2023-04-08T12:21:06.012Z,4.05
2023-04-08T12:23:38.477Z,4.07
2023-04-08T12:26:04.930Z,3.97
2023-04-08T12:28:31.399Z,3.89
2023-04-08T12:30:58.914Z,3.68
2023-04-08T12:33:25.399Z,3.98
2023-04-08T12:35:54.130Z,3.73
2023-04-08T12:38:20.683Z,4.02
2023-04-08T12:40:50.091Z,4.25
2023-04-08T12:43:17.885Z,3.75
2023-04-08T12:45:44.545Z,4.07
2023-04-08T12:48:11.017Z,4.00
2023-04-08T12:50:37.691Z,4.23
2023-04-08T12:53:04.200Z,4.41
2023-04-08T12:55:30.637Z,4.43
2023-04-08T12:57:57.105Z,4.42
2023-04-08T13:00:25.018Z,4.28
2023-04-08T13:02:51.483Z,4.35
2023-04-08T13:05:26.225Z,4.36
2023-04-08T13:07:56.612Z,4.41
2023-04-08T13:10:23.366Z,4.15
2023-04-08T13:12:49.813Z,4.14
2023-04-08T13:15:16.260Z,4.15
2023-04-08T13:17:42.675Z,4.17
2023-04-08T13:20:09.258Z,4.25
2023-04-08T13:22:36.691Z,4.50
2023-04-08T13:25:03.357Z,4.27
2023-04-08T13:27:29.832Z,4.26
2023-04-08T13:29:59.679Z,4.18
2023-04-08T13:32:26.195Z,4.35
2023-04-08T13:34:53.288Z,4.44
2023-04-08T13:37:19.857Z,4.48
2023-04-08T13:39:46.773Z,4.64
2023-04-08T13:42:13.305Z,4.64
2023-04-08T13:44:39.742Z,4.66
2023-04-08T13:47:06.852Z,4.69
2023-04-08T13:49:33.326Z,4.64
2023-04-08T13:51:59.728Z,4.72
2023-04-08T13:54:26.223Z,4.77
2023-04-08T13:56:53.884Z,4.74
2023-04-08T13:59:20.382Z,4.82
2023-04-08T14:01:46.968Z,4.72
2023-04-08T14:04:15.910Z,4.76
2023-04-08T14:06:42.554Z,4.73
2023-04-08T14:09:10.661Z,4.84
2023-04-08T14:11:38.752Z,4.74
2023-04-08T14:14:06.327Z,4.78
2023-04-08T14:16:32.971Z,4.74
2023-04-08T14:18:59.824Z,4.71
2023-04-08T14:21:26.309Z,4.78
2023-04-08T14:23:53.260Z,4.82
2023-04-08T14:26:19.907Z,4.96
2023-04-08T14:28:46.414Z,4.89
2023-04-08T14:31:13.192Z,4.99
2023-04-08T14:33:40.347Z,4.72
2023-04-08T14:36:06.833Z,4.74
2023-04-08T14:38:33.440Z,4.97
2023-04-08T14:40:59.941Z,5.08
2023-04-08T14:43:26.429Z,4.99
2023-04-08T14:45:52.878Z,5.14
2023-04-08T14:48:20.705Z,5.24
2023-04-08T14:50:48.684Z,4.85
2023-04-08T14:53:16.450Z,4.75
2023-04-08T14:55:42.910Z,4.80
2023-04-08T14:58:09.494Z,4.98
2023-04-08T15:00:36.692Z,4.98
2023-04-08T15:03:03.427Z,5.13
2023-04-08T15:05:30.292Z,5.05
2023-04-08T15:07:56.813Z,5.00
2023-04-08T15:10:23.718Z,5.11
2023-04-08T15:12:50.377Z,5.57
2023-04-08T15:15:17.020Z,5.53
2023-04-08T15:17:45.209Z,5.53
2023-04-08T15:20:11.727Z,5.37
2023-04-08T15:22:38.151Z,5.25
2023-04-08T15:25:04.639Z,5.14
2023-04-08T15:27:31.048Z,5.04
2023-04-08T15:29:57.880Z,4.75
2023-04-08T15:32:25.070Z,4.62
2023-04-08T15:34:51.736Z,4.61
2023-04-08T15:37:18.180Z,4.63
2023-04-08T15:39:45.029Z,4.65
2023-04-08T15:42:11.465Z,4.71
2023-04-08T15:44:37.937Z,4.71
2023-04-08T15:47:04.822Z,4.67
2023-04-08T15:49:31.463Z,4.78
2023-04-08T15:51:58.109Z,4.77
2023-04-08T15:54:25.104Z,4.86
2023-04-08T15:56:51.724Z,4.79
2023-04-08T15:59:18.283Z,4.89
2023-04-08T16:01:44.968Z,4.75
2023-04-08T16:04:11.588Z,4.58
2023-04-08T16:06:38.104Z,4.15
2023-04-08T16:09:04.852Z,4.22
2023-04-08T16:11:32.002Z,4.02
2023-04-08T16:13:58.626Z,4.04
2023-04-08T16:16:26.817Z,4.13
2023-04-08T16:18:54.029Z,4.22
2023-04-08T16:21:20.647Z,4.27
2023-04-08T16:23:47.768Z,4.14
2023-04-08T16:26:14.180Z,4.23
2023-04-08T16:28:40.814Z,4.02
2023-04-08T16:31:08.086Z,3.53
2023-04-08T16:33:34.568Z,3.64
2023-04-08T16:36:01.089Z,4.07
2023-04-08T16:38:29.035Z,4.41
2023-04-08T16:40:55.533Z,4.38
2023-04-08T16:43:23.160Z,4.33
2023-04-08T16:45:50.308Z,4.12
2023-04-08T16:48:17.246Z,4.13
2023-04-08T16:50:43.845Z,4.12
2023-04-08T16:53:10.294Z,4.22
2023-04-08T16:55:36.859Z,4.14
2023-04-08T16:58:03.806Z,4.27
2023-04-08T17:00:30.343Z,4.02
2023-04-08T17:02:57.167Z,4.18
2023-04-08T17:05:23.741Z,4.26
2023-04-08T17:07:50.894Z,4.46
2023-04-08T17:10:17.690Z,4.61
2023-04-08T17:12:44.121Z,4.43
2023-04-08T17:15:10.546Z,4.31
2023-04-08T17:17:37.038Z,4.19
2023-04-08T17:20:06.189Z,4.00
2023-04-08T17:22:32.977Z,4.16
2023-04-08T17:24:59.536Z,4.18
2023-04-08T17:27:26.077Z,4.15
2023-04-08T17:29:53.609Z,4.18
2023-04-08T17:32:20.072Z,4.45
2023-04-08T17:34:46.581Z,4.24
2023-04-08T17:37:14.795Z,4.07
2023-04-08T17:39:41.405Z,3.79
2023-04-08T17:42:07.893Z,3.71
2023-04-08T17:44:34.328Z,3.91
2023-04-08T17:47:01.079Z,3.93
2023-04-08T17:49:27.540Z,4.04
2023-04-08T17:51:54.031Z,3.97
2023-04-08T17:54:20.546Z,4.01
2023-04-08T17:56:49.464Z,3.97
2023-04-08T17:59:17.523Z,4.05
2023-04-08T18:01:47.203Z,4.01
2023-04-08T18:04:13.916Z,4.00
2023-04-08T18:06:40.402Z,4.06
2023-04-08T18:09:06.899Z,4.13
2023-04-08T18:11:33.441Z,4.17
2023-04-08T18:14:01.860Z,4.19
2023-04-08T18:16:28.578Z,4.13
2023-04-08T18:18:55.707Z,4.08
2023-04-08T18:21:24.774Z,4.11
2023-04-08T18:23:51.571Z,4.17
2023-04-08T18:26:18.185Z,4.13
2023-04-08T18:28:44.827Z,4.03
2023-04-08T18:31:12.530Z,4.11
2023-04-08T18:33:39.264Z,3.95
2023-04-08T18:36:06.069Z,4.00
2023-04-08T18:38:32.745Z,3.75
2023-04-08T18:40:59.259Z,3.77
2023-04-08T18:43:25.774Z,3.81
2023-04-08T18:45:52.311Z,3.74
2023-04-08T18:48:18.879Z,3.72
2023-04-08T18:50:47.586Z,3.75
2023-04-08T18:53:14.278Z,3.90
2023-04-08T18:55:40.753Z,3.96
2023-04-08T18:58:08.267Z,4.01
2023-04-08T19:00:34.785Z,4.08
2023-04-08T19:03:05.539Z,3.98
2023-04-08T19:05:33.588Z,3.98
2023-04-08T19:08:00.094Z,4.19
2023-04-08T19:10:28.582Z,4.18
2023-04-08T19:12:55.950Z,4.28
2023-04-08T19:15:22.533Z,4.25
2023-04-08T19:17:49.114Z,4.23
2023-04-08T19:20:24.682Z,4.29
2023-04-08T19:22:51.976Z,4.46
2023-04-08T19:25:19.747Z,4.45
2023-04-08T19:27:46.371Z,4.47
2023-04-08T19:30:13.951Z,4.00
2023-04-08T19:32:40.623Z,4.18
2023-04-08T19:35:07.599Z,4.08
2023-04-08T19:37:34.159Z,4.15
2023-04-08T19:40:00.666Z,4.15
2023-04-08T19:42:27.076Z,4.19
2023-04-08T19:44:53.817Z,4.12
2023-04-08T19:47:20.368Z,4.10
2023-04-08T19:49:46.867Z,4.03
2023-04-08T19:52:13.974Z,3.83
2023-04-08T19:54:40.386Z,3.92
2023-04-08T19:57:06.830Z,4.09
2023-04-08T19:59:33.237Z,4.11
2023-04-08T20:02:00.024Z,4.12
2023-04-08T20:04:27.001Z,4.02
2023-04-08T20:06:54.008Z,4.10
2023-04-08T20:09:20.514Z,4.18
2023-04-08T20:11:49.275Z,4.69
2023-04-08T20:14:15.917Z,5.19
2023-04-08T20:16:42.811Z,5.53
2023-04-08T20:19:09.349Z,5.40
2023-04-08T20:21:35.842Z,5.18
2023-04-08T20:24:02.284Z,5.07
2023-04-08T20:26:31.067Z,4.96
2023-04-08T20:28:59.833Z,4.75
2023-04-08T20:31:26.397Z,4.87
2023-04-08T20:33:52.924Z,4.82
2023-04-08T20:36:19.875Z,4.59
2023-04-08T20:38:46.659Z,4.64
2023-04-08T20:41:15.556Z,4.61
2023-04-08T20:43:43.219Z,4.53
2023-04-08T20:46:10.125Z,4.69
2023-04-08T20:48:36.519Z,4.60
2023-04-08T20:51:02.998Z,4.59
2023-04-08T20:53:29.774Z,4.49
2023-04-08T20:55:56.444Z,4.47
2023-04-08T20:58:22.929Z,4.61
2023-04-08T21:00:49.429Z,4.49
2023-04-08T21:03:16.309Z,4.52
2023-04-08T21:05:45.713Z,4.35
2023-04-08T21:08:16.657Z,4.05
2023-04-08T21:10:43.158Z,4.18
2023-04-08T21:13:12.088Z,4.11
2023-04-08T21:15:38.558Z,4.08
2023-04-08T21:18:05.090Z,4.07
2023-04-08T21:20:31.762Z,4.27
2023-04-08T21:22:58.509Z,4.09
2023-04-08T21:25:25.133Z,4.13
2023-04-08T21:27:51.875Z,4.35
2023-04-08T21:30:18.765Z,4.31
2023-04-08T21:32:45.504Z,3.98
2023-04-08T21:35:13.480Z,4.07
2023-04-08T21:37:39.907Z,3.87
2023-04-08T21:40:06.356Z,3.99
2023-04-08T21:42:33.047Z,4.07
2023-04-08T21:44:59.452Z,4.01
2023-04-08T21:47:26.128Z,3.93
2023-04-08T21:49:54.934Z,4.01
2023-04-08T21:52:21.456Z,4.04
2023-04-08T21:54:48.195Z,4.09
2023-04-08T21:57:14.624Z,4.17
2023-04-08T21:59:42.034Z,4.11
2023-04-08T22:02:10.750Z,4.13
2023-04-08T22:04:37.981Z,4.03
2023-04-08T22:07:04.414Z,4.19
2023-04-08T22:09:30.854Z,4.31
2023-04-08T22:11:57.339Z,4.23
2023-04-08T22:14:23.876Z,3.99
2023-04-08T22:16:51.057Z,4.04
2023-04-08T22:19:17.758Z,4.16
2023-04-08T22:21:44.284Z,4.06
2023-04-08T22:24:10.850Z,3.73
2023-04-08T22:26:37.311Z,3.77
2023-04-08T22:29:03.838Z,3.88
2023-04-08T22:31:30.584Z,3.80
2023-04-08T22:33:58.137Z,3.80
2023-04-08T22:36:25.347Z,3.69
2023-04-08T22:38:52.032Z,3.68
2023-04-08T22:41:19.644Z,3.69
2023-04-08T22:43:46.125Z,3.69
2023-04-08T22:46:13.941Z,3.84
2023-04-08T22:48:40.383Z,4.00
2023-04-08T22:51:06.914Z,4.05
2023-04-08T22:53:33.368Z,4.11
2023-04-08T22:56:00.779Z,4.25
2023-04-08T22:58:27.423Z,4.22
2023-04-08T23:00:55.952Z,4.17
2023-04-08T23:03:22.889Z,4.08
2023-04-08T23:05:49.357Z,3.90
2023-04-08T23:08:15.840Z,3.90
2023-04-08T23:10:42.321Z,3.92
2023-04-08T23:13:09.873Z,3.87
2023-04-08T23:15:36.368Z,3.85
2023-04-08T23:18:03.052Z,3.97
2023-04-08T23:20:29.534Z,4.08
2023-04-08T23:22:55.992Z,4.03
2023-04-08T23:25:23.592Z,4.16
2023-04-08T23:27:50.115Z,4.34
2023-04-08T23:30:16.537Z,4.28
2023-04-08T23:35:26.355Z,4.09
2023-04-08T23:37:53.250Z,3.98
2023-04-08T23:40:19.736Z,3.98
2023-04-08T23:42:46.203Z,4.03
2023-04-08T23:45:13.887Z,4.13
2023-04-08T23:47:41.676Z,4.18
2023-04-08T23:50:08.163Z,4.17
2023-04-08T23:52:34.564Z,4.03
2023-04-08T23:55:01.054Z,3.96
2023-04-08T23:57:27.868Z,4.04
2023-04-08T23:59:54.732Z,4.04
